Time;durP1;ratioP1;P1;durP2;ratioP2;P2;SDS_P1;SDS_P2;PMS_P1;PMS_P2;Temp;Humidity;BMP_temperature;BMP_pressure;BME280_temperature;BME280_humidity;BME280_pressure;Samples;Min_cycle;Max_cycle;Signal;HPM_P1;HPM_P2
2022/08/18 00:02:06;;;;;;;11.47;10.27;;;23.00;91.90;;;;;;5019163;28;20488;-52
2022/08/18 00:04:35;;;;;;;11.07;9.40;;;22.90;91.90;;;;;;4998396;28;20472;-51
2022/08/18 00:07:01;;;;;;;10.70;8.90;;;22.80;91.90;;;;;;5006758;28;21054;-54
2022/08/18 00:09:28;;;;;;;10.57;8.30;;;22.80;92.10;;;;;;5013964;28;20477;-53
2022/08/18 00:11:56;;;;;;;11.30;9.30;;;22.60;92.40;;;;;;5015814;28;20489;-54
2022/08/18 00:14:23;;;;;;;10.40;9.50;;;22.60;92.50;;;;;;5013530;28;20484;-54
2022/08/18 00:16:52;;;;;;;11.13;9.80;;;22.50;92.60;;;;;;5015918;28;20496;-54
2022/08/18 00:19:19;;;;;;;9.63;8.63;;;22.60;92.80;;;;;;5013856;28;21021;-55
2022/08/18 00:21:46;;;;;;;10.90;9.90;;;22.50;92.70;;;;;;5017516;28;20491;-54
2022/08/18 00:24:13;;;;;;;10.27;9.27;;;22.50;92.70;;;;;;5018478;28;20473;-55
2022/08/18 00:26:40;;;;;;;11.97;8.73;;;22.50;92.70;;;;;;5016858;28;20939;-53
2022/08/18 00:29:08;;;;;;;10.60;8.40;;;22.60;92.80;;;;;;5019686;28;20481;-54
2022/08/18 00:31:35;;;;;;;9.90;8.60;;;22.60;92.80;;;;;;5017662;28;20480;-53
2022/08/18 00:34:02;;;;;;;9.53;7.80;;;22.60;92.80;;;;;;5015653;28;20527;-54
2022/08/18 00:36:30;;;;;;;10.00;8.80;;;22.60;93.10;;;;;;5017734;28;20481;-53
2022/08/18 00:38:57;;;;;;;10.60;8.13;;;22.20;92.80;;;;;;5017893;28;20495;-55
2022/08/18 00:41:25;;;;;;;9.27;8.33;;;22.60;92.80;;;;;;5018973;28;20485;-54
2022/08/18 00:43:53;;;;;;;11.50;8.10;;;22.70;93.00;;;;;;5011552;28;20484;-54
2022/08/18 00:46:24;;;;;;;9.03;8.13;;;22.80;92.50;;;;;;5026420;28;20924;-54
2022/08/18 00:48:51;;;;;;;8.63;7.83;;;22.90;92.50;;;;;;5020743;28;20477;-54
2022/08/18 00:51:24;;;;;;;8.83;7.70;;;22.90;92.30;;;;;;5033192;28;20475;-53
2022/08/18 00:53:55;;;;;;;8.73;7.83;;;22.90;92.30;;;;;;5010539;28;20572;-53
2022/08/18 00:56:25;;;;;;;8.90;8.03;;;22.90;92.70;;;;;;5014639;28;21025;-55
2022/08/18 00:58:57;;;;;;;9.07;7.70;;;22.90;92.40;;;;;;5003162;28;20465;-53
2022/08/18 01:01:28;;;;;;;7.60;6.80;;;23.00;92.30;;;;;;5005305;28;21072;-54
2022/08/18 01:04:05;;;;;;;8.00;7.27;;;23.00;92.30;;;;;;5012226;28;20965;-55
2022/08/18 01:06:38;;;;;;;11.20;7.83;;;23.10;92.30;;;;;;5000449;28;20480;-54
2022/08/18 01:09:04;;;;;;;8.10;6.83;;;23.10;92.10;;;;;;5012825;28;20985;-53
2022/08/18 01:11:32;;;;;;;9.13;7.40;;;23.10;92.30;;;;;;5014369;28;20468;-52
2022/08/18 01:13:59;;;;;;;9.20;8.30;;;23.30;92.10;;;;;;5002680;28;20488;-52
2022/08/18 01:22:03;;;;;;;8.57;7.77;;;23.20;92.50;;;;;;5015985;28;20834;-52
2022/08/18 01:27:21;;;;;;;12.97;8.17;;;23.10;92.50;;;;;;5025005;28;20487;-53
2022/08/18 01:29:49;;;;;;;11.27;8.07;;;23.00;92.70;;;;;;5032187;28;20494;-53
2022/08/18 01:32:19;;;;;;;10.60;9.33;;;22.80;92.90;;;;;;5035341;28;20484;-53
2022/08/18 01:34:46;;;;;;;10.60;9.50;;;22.70;93.20;;;;;;5037260;28;20491;-52
2022/08/18 01:37:13;;;;;;;13.83;10.77;;;22.40;93.60;;;;;;5034690;28;20472;-53
2022/08/18 01:39:42;;;;;;;11.53;10.30;;;22.40;94.00;;;;;;5037466;28;20471;-53
2022/08/18 01:42:10;;;;;;;10.47;9.37;;;22.10;94.70;;;;;;5033130;28;20479;-52
2022/08/18 01:44:38;;;;;;;12.20;9.03;;;22.10;94.90;;;;;;5037191;28;20488;-52
2022/08/18 01:47:05;;;;;;;10.23;8.90;;;21.90;95.70;;;;;;5035206;28;20476;-52
2022/08/18 01:49:31;;;;;;;14.93;11.23;;;21.90;96.10;;;;;;5039178;28;20490;-52
2022/08/18 01:51:58;;;;;;;12.97;10.50;;;21.80;97.00;;;;;;5038388;28;20478;-53
2022/08/18 01:54:29;;;;;;;11.93;10.73;;;21.60;97.60;;;;;;5034339;28;20483;-53
2022/08/18 01:56:57;;;;;;;13.93;10.13;;;21.60;98.00;;;;;;5035471;28;20878;-53
2022/08/18 01:59:24;;;;;;;11.00;9.90;;;21.50;98.30;;;;;;5027285;28;20491;-54
2022/08/18 02:01:55;;;;;;;12.20;10.93;;;21.50;98.80;;;;;;5046159;28;20487;-54
2022/08/18 02:04:24;;;;;;;12.77;10.57;;;21.40;99.10;;;;;;5024715;28;20853;-53
2022/08/18 02:06:51;;;;;;;12.10;10.87;;;21.40;99.30;;;;;;5023345;28;20480;-53
2022/08/18 02:09:18;;;;;;;15.10;12.10;;;;;;;;;;5033962;28;20840;-52
2022/08/18 02:11:45;;;;;;;17.27;10.17;;;21.30;99.90;;;;;;5036089;28;20476;-54
2022/08/18 02:14:13;;;;;;;11.60;10.30;;;21.30;99.90;;;;;;5036187;28;20471;-54
2022/08/18 02:16:39;;;;;;;12.93;11.70;;;21.30;99.90;;;;;;5034577;28;20847;-53
2022/08/18 02:19:06;;;;;;;12.87;10.43;;;21.30;99.90;;;;;;5037552;28;20969;-53
2022/08/18 02:21:33;;;;;;;13.13;11.73;;;21.30;99.90;;;;;;5035940;28;21049;-53
2022/08/18 02:23:59;;;;;;;14.70;11.40;;;21.30;99.90;;;;;;5036438;28;20475;-53
2022/08/18 02:26:26;;;;;;;14.87;10.53;;;21.30;99.90;;;;;;5034799;28;20475;-53
2022/08/18 02:28:53;;;;;;;17.70;9.63;;;21.40;99.90;;;;;;5036259;28;20486;-52
2022/08/18 02:31:24;;;;;;;14.03;12.20;;;21.40;99.90;;;;;;5036351;28;20484;-52
2022/08/18 02:33:51;;;;;;;12.30;10.83;;;21.40;99.90;;;;;;5036048;28;21496;-53
2022/08/18 02:36:18;;;;;;;11.00;9.80;;;21.40;99.90;;;;;;5035769;28;20546;-52
2022/08/18 02:38:45;;;;;;;11.37;9.93;;;21.40;99.90;;;;;;5035185;28;20484;-52
2022/08/18 02:41:13;;;;;;;10.47;9.20;;;21.40;99.90;;;;;;5036382;28;20483;-52
2022/08/18 02:43:42;;;;;;;14.27;11.10;;;21.50;99.90;;;;;;5033716;28;20575;-54
2022/08/18 02:46:09;;;;;;;14.30;9.87;;;21.60;99.90;;;;;;5036571;28;20490;-52
2022/08/18 02:48:37;;;;;;;12.93;9.70;;;21.70;99.90;;;;;;5034717;28;20740;-53
2022/08/18 02:51:07;;;;;;;14.23;8.90;;;21.80;99.90;;;;;;5036668;28;20854;-52
2022/08/18 02:53:36;;;;;;;13.77;10.93;;;21.80;99.80;;;;;;5035788;28;20499;-52
2022/08/18 02:56:20;;;;;;;11.87;10.67;;;21.90;99.80;;;;;;5040699;28;20847;-52
2022/08/18 02:58:47;;;;;;;12.90;10.47;;;21.90;99.80;;;;;;5039088;28;21147;-52
2022/08/18 03:01:14;;;;;;;11.90;9.33;;;21.90;99.90;;;;;;5038161;28;20483;-52
2022/08/18 03:03:42;;;;;;;16.10;11.07;;;21.90;99.90;;;;;;5039501;28;20753;-52
2022/08/18 03:06:09;;;;;;;9.90;8.90;;;21.90;99.90;;;;;;5039227;28;20484;-52
2022/08/18 03:08:36;;;;;;;12.03;10.13;;;21.90;99.90;;;;;;5033992;28;20480;-52
2022/08/18 03:11:02;;;;;;;15.67;9.80;;;21.80;99.90;;;;;;5040344;28;20480;-52
2022/08/18 03:13:29;;;;;;;11.90;10.70;;;21.70;99.90;;;;;;5037796;28;20502;-53
2022/08/18 03:15:56;;;;;;;10.40;9.30;;;21.60;99.90;;;;;;5037410;28;20790;-52
2022/08/18 03:18:23;;;;;;;12.50;10.53;;;21.60;99.90;;;;;;5038270;28;21096;-52
2022/08/18 03:20:51;;;;;;;17.40;10.90;;;;;;;;;;5038821;28;20480;-52
2022/08/18 03:23:18;;;;;;;14.00;10.90;;;21.60;99.90;;;;;;5028444;28;21052;-52
2022/08/18 03:25:46;;;;;;;11.10;9.63;;;21.50;99.90;;;;;;5038356;28;20507;-52
2022/08/18 03:28:14;;;;;;;11.13;8.90;;;21.50;99.90;;;;;;5038413;28;20480;-52
2022/08/18 03:30:42;;;;;;;12.97;9.77;;;21.80;99.90;;;;;;5039726;28;20489;-52
2022/08/18 03:33:09;;;;;;;11.10;8.63;;;21.90;99.90;;;;;;5036893;28;20554;-52
2022/08/18 03:35:36;;;;;;;11.70;9.93;;;22.00;99.90;;;;;;5038979;28;20490;-52
2022/08/18 03:38:04;;;;;;;12.60;9.73;;;22.00;99.90;;;;;;5037800;28;20564;-52
2022/08/18 03:40:31;;;;;;;11.43;10.17;;;22.00;99.90;;;;;;5037542;28;21048;-52
2022/08/18 03:42:58;;;;;;;15.03;10.40;;;21.90;99.90;;;;;;5028218;28;21045;-52
2022/08/18 03:45:27;;;;;;;11.07;9.97;;;21.90;99.90;;;;;;5038615;28;20475;-52
2022/08/18 03:47:54;;;;;;;13.07;10.93;;;21.90;99.90;;;;;;5037937;28;20490;-56
2022/08/18 03:50:24;;;;;;;10.20;9.00;;;21.90;99.90;;;;;;5038765;28;21221;-52
2022/08/18 03:52:51;;;;;;;13.50;10.40;;;21.70;99.90;;;;;;5039201;28;20674;-52
2022/08/18 03:55:19;;;;;;;10.80;9.80;;;21.80;99.90;;;;;;5034609;28;20480;-52
2022/08/18 03:57:46;;;;;;;12.43;9.37;;;21.90;99.90;;;;;;5035958;28;20490;-52
2022/08/18 04:00:14;;;;;;;11.37;9.90;;;22.00;99.90;;;;;;5038247;28;20487;-52
2022/08/18 04:02:40;;;;;;;12.10;10.90;;;22.00;99.90;;;;;;5012153;28;20486;-52
2022/08/18 04:05:10;;;;;;;15.83;10.07;;;22.00;99.90;;;;;;5033731;28;20463;-52
2022/08/18 04:07:37;;;;;;;15.67;9.93;;;22.00;99.90;;;;;;5024561;28;20500;-52
2022/08/18 04:10:05;;;;;;;11.17;10.00;;;22.00;99.90;;;;;;5037036;28;20471;-52
2022/08/18 04:12:33;;;;;;;12.13;10.80;;;22.10;99.90;;;;;;5037364;28;20814;-52
2022/08/18 04:14:59;;;;;;;13.53;10.97;;;22.10;99.80;;;;;;5037627;28;21027;-52
2022/08/18 04:17:26;;;;;;;15.00;11.80;;;22.20;99.40;;;;;;5035636;28;21222;-53
2022/08/18 04:19:55;;;;;;;10.37;9.17;;;22.20;99.40;;;;;;5038710;28;20488;-53
2022/08/18 04:22:23;;;;;;;13.73;11.63;;;22.20;99.60;;;;;;5034056;28;20880;-53
2022/08/18 04:24:50;;;;;;;14.17;12.20;;;22.10;99.50;;;;;;5038006;28;20864;-53
2022/08/18 04:27:17;;;;;;;12.67;11.33;;;22.00;99.50;;;;;;5036807;28;20494;-52
2022/08/18 04:29:45;;;;;;;15.30;11.47;;;21.90;99.80;;;;;;5037582;28;20482;-52
2022/08/18 04:32:12;;;;;;;16.03;11.80;;;21.90;99.80;;;;;;5039426;28;20917;-52
2022/08/18 04:34:39;;;;;;;14.70;11.40;;;21.90;99.80;;;;;;5037905;28;20977;-52
2022/08/18 04:37:08;;;;;;;18.77;11.03;;;21.80;99.80;;;;;;5036620;28;20472;-52
2022/08/18 04:39:35;;;;;;;17.47;14.00;;;21.90;99.70;;;;;;5036228;28;20483;-52
2022/08/18 04:42:02;;;;;;;19.40;11.70;;;21.80;99.60;;;;;;5037167;28;20480;-52
2022/08/18 04:44:29;;;;;;;22.97;15.07;;;21.80;99.80;;;;;;5037712;28;20586;-52
2022/08/18 04:46:57;;;;;;;15.40;13.80;;;21.90;99.70;;;;;;5036976;28;20995;-52
2022/08/18 04:49:26;;;;;;;24.63;14.57;;;22.00;99.60;;;;;;5037052;28;20511;-52
2022/08/18 04:54:40;;;;;;;15.13;12.50;;;21.80;99.90;;;;;;5033168;28;20525;-52
2022/08/18 04:57:09;;;;;;;15.90;13.03;;;21.60;99.90;;;;;;5036051;28;20484;-52
2022/08/18 04:59:36;;;;;;;15.77;13.40;;;21.50;99.90;;;;;;5037000;28;20843;-52
2022/08/18 05:02:06;;;;;;;15.20;11.97;;;21.40;99.90;;;;;;5038006;28;20958;-52
2022/08/18 05:04:34;;;;;;;21.77;14.40;;;21.50;99.90;;;;;;5037684;28;20549;-53
2022/08/18 05:07:01;;;;;;;14.20;12.23;;;21.50;99.90;;;;;;5036414;28;20512;-52
2022/08/18 05:09:27;;;;;;;17.77;15.33;;;21.50;99.90;;;;;;5037118;28;20484;-51
2022/08/18 05:11:54;;;;;;;16.03;12.17;;;21.50;99.90;;;;;;5037332;28;20483;-51
2022/08/18 05:14:21;;;;;;;20.13;13.97;;;21.70;99.90;;;;;;5036422;28;20484;-52
2022/08/18 05:16:48;;;;;;;19.27;14.20;;;21.70;99.90;;;;;;5035645;28;20510;-52
2022/08/18 05:19:21;;;;;;;18.70;13.23;;;21.80;99.90;;;;;;5036859;28;20479;-53
2022/08/18 05:21:48;;;;;;;15.73;13.00;;;21.80;99.90;;;;;;5036765;28;20562;-52
2022/08/18 05:24:15;;;;;;;21.43;14.40;;;21.90;99.90;;;;;;5037839;28;20536;-52
2022/08/18 05:26:43;;;;;;;15.70;13.40;;;21.90;99.90;;;;;;5036535;28;20727;-52
2022/08/18 05:29:10;;;;;;;13.67;11.60;;;21.90;99.90;;;;;;5037118;28;20475;-51
2022/08/18 05:31:36;;;;;;;15.63;12.50;;;21.90;99.90;;;;;;5037146;28;20480;-51
2022/08/18 05:34:04;;;;;;;15.37;13.10;;;22.00;99.90;;;;;;5036519;28;20488;-52
2022/08/18 05:36:49;;;;;;;20.13;15.40;;;22.00;99.80;;;;;;5035498;28;20754;-51
2022/08/18 05:39:22;;;;;;;15.93;12.73;;;22.10;99.90;;;;;;5037324;28;20747;-51
2022/08/18 05:41:52;;;;;;;16.10;13.27;;;22.10;99.90;;;;;;5036272;28;20487;-52
2022/08/18 05:44:24;;;;;;;14.93;13.33;;;22.10;99.80;;;;;;5036465;28;20479;-51
2022/08/18 05:46:53;;;;;;;19.23;13.00;;;22.20;99.70;;;;;;5034864;28;20859;-52
2022/08/18 05:49:21;;;;;;;16.07;14.30;;;22.20;99.60;;;;;;5035868;28;20479;-51
2022/08/18 05:51:53;;;;;;;16.63;13.67;;;22.20;99.90;;;;;;5032038;28;20514;-51
2022/08/18 05:57:16;;;;;;;16.93;13.30;;;22.30;99.90;;;;;;5036333;28;20507;-51
2022/08/18 05:59:45;;;;;;;15.03;13.20;;;22.30;99.90;;;;;;5036112;28;20479;-52
2022/08/18 06:02:17;;;;;;;17.00;13.10;;;22.20;99.90;;;;;;5036005;28;20479;-51
2022/08/18 06:04:50;;;;;;;13.50;11.47;;;22.10;99.90;;;;;;5025127;28;20480;-52
2022/08/18 06:07:30;;;;;;;19.20;13.77;;;22.00;99.90;;;;;;5033427;28;20479;-51
2022/08/18 06:09:57;;;;;;;20.33;14.37;;;21.90;99.90;;;;;;5036199;28;20479;-52
2022/08/18 06:12:27;;;;;;;16.73;14.23;;;21.90;99.90;;;;;;5035995;28;20569;-52
2022/08/18 06:15:02;;;;;;;17.07;14.57;;;21.90;99.90;;;;;;5036436;28;20488;-52
2022/08/18 06:17:59;;;;;;;19.20;12.47;;;22.00;99.90;;;;;;5031120;28;20541;-52
2022/08/18 06:20:33;;;;;;;16.97;15.17;;;22.00;99.90;;;;;;5026083;28;20514;-52
2022/08/18 06:23:18;;;;;;;15.97;13.17;;;22.10;99.90;;;;;;5036165;28;20482;-52
2022/08/18 06:25:56;;;;;;;20.50;13.43;;;22.10;99.90;;;;;;5025860;28;20488;-52
2022/08/18 06:28:23;;;;;;;18.03;13.33;;;22.10;99.90;;;;;;5034037;28;20865;-52
2022/08/18 06:30:57;;;;;;;16.47;13.87;;;22.20;99.90;;;;;;5029186;28;20491;-52
2022/08/18 06:33:44;;;;;;;18.83;14.83;;;22.20;99.90;;;;;;5034455;28;20483;-52
2022/08/18 06:36:18;;;;;;;15.80;12.70;;;22.20;99.90;;;;;;5032803;28;20472;-52
2022/08/18 06:38:59;;;;;;;17.73;13.27;;;22.20;99.90;;;;;;5021201;28;20825;-52
2022/08/18 06:41:35;;;;;;;18.77;15.00;;;22.30;99.90;;;;;;5033158;28;20940;-52
2022/08/18 06:44:06;;;;;;;19.83;14.90;;;22.30;99.90;;;;;;5035810;28;20490;-52
2022/08/18 06:46:41;;;;;;;17.03;15.23;;;22.40;99.90;;;;;;5034382;28;20479;-52
2022/08/18 06:49:10;;;;;;;16.03;13.10;;;22.40;99.90;;;;;;5036347;28;21405;-51
2022/08/18 06:51:37;;;;;;;19.80;15.63;;;22.40;99.90;;;;;;5035441;28;20487;-52
2022/08/18 06:54:07;;;;;;;18.63;14.73;;;22.40;99.90;;;;;;5034007;28;20480;-52
2022/08/18 06:56:50;;;;;;;18.90;15.80;;;22.40;99.90;;;;;;5033722;28;20847;-52
2022/08/18 06:59:21;;;;;;;22.83;15.93;;;22.40;99.90;;;;;;5036609;28;20468;-52
2022/08/18 07:01:51;;;;;;;18.60;13.70;;;22.40;99.90;;;;;;5024339;28;20480;-51
2022/08/18 07:04:36;;;;;;;19.97;15.53;;;22.30;99.90;;;;;;5033952;28;20479;-51
2022/08/18 07:07:20;;;;;;;19.60;15.77;;;22.20;99.90;;;;;;5033549;28;20913;-51
2022/08/18 07:09:49;;;;;;;20.63;16.53;;;22.20;99.90;;;;;;5023347;28;20483;-52
2022/08/18 07:12:22;;;;;;;20.60;16.17;;;22.30;99.90;;;;;;5019982;28;20471;-52
2022/08/18 07:14:53;;;;;;;20.90;16.33;;;22.30;99.90;;;;;;5033312;28;20494;-52
2022/08/18 07:17:23;;;;;;;20.30;15.27;;;22.30;99.90;;;;;;5033119;28;20688;-52
2022/08/18 07:20:07;;;;;;;17.33;15.10;;;22.30;99.90;;;;;;5035412;28;21007;-52
2022/08/18 07:22:53;;;;;;;21.90;16.37;;;22.30;99.90;;;;;;5034819;28;20855;-52
2022/08/18 07:25:24;;;;;;;18.97;16.53;;;22.40;99.90;;;;;;5015854;28;20505;-58
2022/08/18 07:27:55;;;;;;;20.80;15.83;;;22.40;99.90;;;;;;5018015;28;20926;-51
2022/08/18 07:30:35;;;;;;;19.30;15.77;;;22.40;99.90;;;;;;5030146;28;21075;-51
2022/08/18 07:33:20;;;;;;;25.80;15.90;;;22.40;99.90;;;;;;5031616;28;20484;-51
2022/08/18 07:35:49;;;;;;;26.20;17.17;;;22.40;99.90;;;;;;5015213;28;20474;-51
2022/08/18 07:38:23;;;;;;;20.37;16.40;;;22.40;99.90;;;;;;5034082;28;20472;-50
2022/08/18 07:40:56;;;;;;;24.73;17.00;;;22.40;99.90;;;;;;5036165;28;20486;-51
2022/08/18 07:43:28;;;;;;;22.27;17.13;;;22.40;99.90;;;;;;5039056;28;20479;-52
2022/08/18 07:46:04;;;;;;;22.30;18.27;;;22.50;99.90;;;;;;5039220;28;20479;-51
2022/08/18 07:48:33;;;;;;;22.43;17.43;;;22.50;99.90;;;;;;5033873;28;20937;-50
2022/08/18 07:51:09;;;;;;;20.40;16.07;;;22.50;99.90;;;;;;5034673;28;21053;-51
2022/08/18 07:53:50;;;;;;;21.63;16.53;;;22.50;99.90;;;;;;5036124;28;20475;-51
2022/08/18 07:56:26;;;;;;;20.90;17.10;;;22.50;99.90;;;;;;5026181;28;20486;-51
2022/08/18 07:58:58;;;;;;;24.10;18.13;;;22.50;99.90;;;;;;5007402;28;20493;-51
2022/08/18 08:01:31;;;;;;;21.73;18.40;;;22.50;99.90;;;;;;5032786;28;20479;-52
2022/08/18 08:04:07;;;;;;;24.20;18.40;;;22.70;99.90;;;;;;5038294;28;21011;-51
2022/08/18 08:06:42;;;;;;;30.00;20.70;;;22.70;99.90;;;;;;5032041;28;20995;-51
2022/08/18 08:09:19;;;;;;;22.03;17.40;;;22.70;99.90;;;;;;5037616;28;20483;-52
2022/08/18 08:11:56;;;;;;;23.07;18.57;;;22.80;99.90;;;;;;5035406;28;20489;-52
2022/08/18 08:14:36;;;;;;;31.50;20.60;;;22.80;99.90;;;;;;5037919;28;20956;-52
2022/08/18 08:17:12;;;;;;;31.27;18.70;;;22.80;99.90;;;;;;5031848;28;20885;-52
2022/08/18 08:19:56;;;;;;;23.37;20.00;;;22.80;99.90;;;;;;5038259;28;20489;-52
2022/08/18 08:22:30;;;;;;;25.77;20.50;;;22.70;99.90;;;;;;5027680;28;20483;-53
2022/08/18 08:25:04;;;;;;;27.40;21.80;;;22.60;99.90;;;;;;5026412;28;20487;-52
2022/08/18 08:27:47;;;;;;;29.40;21.33;;;22.60;99.90;;;;;;5035864;28;20488;-52
2022/08/18 08:30:18;;;;;;;22.50;17.27;;;22.60;99.90;;;;;;5034316;28;20492;-51
2022/08/18 08:32:58;;;;;;;20.00;17.83;;;22.60;99.90;;;;;;5032662;28;20831;-51
2022/08/18 08:35:33;;;;;;;26.70;21.03;;;22.60;99.90;;;;;;5037074;28;20467;-50
2022/08/18 08:38:06;;;;;;;30.53;21.20;;;22.70;99.90;;;;;;5026519;28;20474;-50
2022/08/18 08:40:41;;;;;;;28.63;23.47;;;22.70;99.90;;;;;;5031440;28;21313;-50
2022/08/18 08:43:12;;;;;;;27.77;20.43;;;22.60;99.90;;;;;;5035615;28;20483;-50
2022/08/18 08:45:45;;;;;;;26.37;20.50;;;22.70;99.90;;;;;;5037089;28;20491;-49
2022/08/18 08:48:17;;;;;;;25.00;19.30;;;22.60;99.90;;;;;;5036724;28;20491;-50
2022/08/18 08:50:49;;;;;;;24.13;19.27;;;22.60;99.90;;;;;;5038129;28;20542;-51
2022/08/18 08:53:21;;;;;;;33.93;23.73;;;22.60;99.90;;;;;;5032893;28;20978;-51
2022/08/18 08:55:53;;;;;;;28.10;20.90;;;22.50;99.90;;;;;;5037053;28;20484;-50
2022/08/18 08:58:28;;;;;;;26.63;20.97;;;22.50;99.90;;;;;;5033420;28;20478;-50
2022/08/18 09:00:56;;;;;;;26.60;19.37;;;22.60;99.90;;;;;;5026648;28;20683;-49
2022/08/18 09:03:35;;;;;;;33.00;19.77;;;22.70;99.90;;;;;;5036437;28;20472;-49
2022/08/18 09:06:09;;;;;;;24.23;19.30;;;22.80;99.90;;;;;;5024563;28;20843;-50
2022/08/18 09:08:54;;;;;;;27.93;19.80;;;22.90;99.90;;;;;;5035456;28;20858;-50
2022/08/18 09:11:39;;;;;;;26.00;21.07;;;22.80;99.90;;;;;;5032590;28;20899;-50
2022/08/18 09:14:41;;;;;;;37.20;19.10;;;22.90;99.90;;;;;;5023941;28;20475;-50
2022/08/18 09:17:35;;;;;;;23.97;17.63;;;23.00;99.90;;;;;;5015984;28;20566;-50
2022/08/18 09:20:18;;;;;;;25.53;20.43;;;23.00;99.90;;;;;;5026140;28;20476;-50
2022/08/18 09:22:48;;;;;;;24.70;20.27;;;23.20;99.90;;;;;;5033719;28;20487;-51
2022/08/18 09:25:33;;;;;;;24.80;18.87;;;23.20;99.90;;;;;;5036354;28;20996;-50
2022/08/18 09:28:11;;;;;;;28.00;20.50;;;23.20;99.70;;;;;;5035233;28;20502;-50
2022/08/18 09:30:46;;;;;;;28.10;21.50;;;23.30;99.70;;;;;;5037060;28;20479;-51
2022/08/18 09:33:32;;;;;;;27.57;20.63;;;23.30;99.70;;;;;;5036549;28;20698;-51
2022/08/18 09:36:23;;;;;;;26.37;19.50;;;23.30;99.60;;;;;;5028153;28;20486;-51
2022/08/18 09:41:46;;;;;;;26.17;20.97;;;23.60;99.90;;;;;;5012454;28;20911;-51
2022/08/18 09:44:34;;;;;;;25.70;19.60;;;23.80;99.30;;;;;;5026894;28;20541;-50
2022/08/18 09:47:02;;;;;;;32.27;20.00;;;23.90;99.80;;;;;;5023799;28;20808;-51
2022/08/18 09:49:48;;;;;;;27.57;21.93;;;23.90;99.80;;;;;;5032277;28;20561;-51
2022/08/18 09:52:54;;;;;;;26.40;21.13;;;23.90;99.90;;;;;;5026997;28;20483;-51
2022/08/18 09:55:54;;;;;;;28.40;23.30;;;24.30;99.70;;;;;;5007977;28;21084;-51
2022/08/18 09:58:57;;;;;;;35.47;22.37;;;24.20;99.10;;;;;;5012150;28;21037;-52
2022/08/18 10:01:48;;;;;;;24.90;21.57;;;24.40;99.70;;;;;;5011791;28;21139;-51
2022/08/18 10:04:30;;;;;;;27.50;22.63;;;24.40;99.30;;;;;;5014329;28;21069;-52
2022/08/18 10:07:29;;;;;;;25.23;20.20;;;24.30;98.60;;;;;;5014312;28;20494;-51
2022/08/18 10:10:09;;;;;;;28.97;21.93;;;24.30;98.60;;;;;;5014292;28;20583;-52
2022/08/18 10:13:01;;;;;;;32.13;20.53;;;24.20;98.70;;;;;;5015298;28;20569;-52
2022/08/18 10:15:48;;;;;;;30.23;23.10;;;24.10;98.80;;;;;;5023103;28;20879;-51
2022/08/18 10:18:26;;;;;;;26.10;21.00;;;24.10;99.00;;;;;;5019441;28;20992;-51
2022/08/18 10:21:07;;;;;;;26.97;23.20;;;24.00;98.90;;;;;;5014722;28;20804;-52
2022/08/18 10:23:53;;;;;;;28.67;23.10;;;24.00;98.80;;;;;;5013995;28;20476;-52
2022/08/18 10:27:06;;;;;;;32.10;22.40;;;24.00;98.80;;;;;;5012895;28;20721;-52
2022/08/18 10:29:52;;;;;;;33.43;23.27;;;24.00;98.90;;;;;;5008688;28;20473;-53
2022/08/18 10:32:38;;;;;;;26.33;22.20;;;23.90;99.20;;;;;;5024326;28;20850;-53
2022/08/18 10:35:44;;;;;;;24.97;20.90;;;23.80;98.80;;;;;;5003593;28;20903;-52
2022/08/18 10:38:16;;;;;;;23.30;17.17;;;23.60;98.70;;;;;;5015683;28;20495;-52
2022/08/18 10:40:43;;;;;;;20.30;16.50;;;23.50;99.10;;;;;;5022924;28;20476;-53
2022/08/18 10:43:15;;;;;;;22.17;17.17;;;23.50;99.00;;;;;;5026102;28;20476;-52
2022/08/18 10:45:46;;;;;;;19.43;16.77;;;23.60;99.00;;;;;;5024155;28;20484;-52
2022/08/18 10:48:24;;;;;;;19.17;16.47;;;23.60;99.10;;;;;;5018626;28;21020;-52
2022/08/18 10:50:58;;;;;;;18.13;15.83;;;23.70;99.00;;;;;;5020658;28;20494;-52
2022/08/18 10:53:35;;;;;;;21.47;16.63;;;23.80;98.70;;;;;;5019641;28;20590;-51
2022/08/18 10:56:05;;;;;;;16.93;14.10;;;23.70;98.90;;;;;;5004867;28;20555;-52
2022/08/18 10:58:45;;;;;;;15.83;14.20;;;23.90;98.70;;;;;;5010687;28;20927;-53
2022/08/18 11:01:21;;;;;;;15.17;12.90;;;23.90;98.00;;;;;;5012920;28;20563;-52
2022/08/18 11:04:12;;;;;;;13.73;12.33;;;23.80;97.90;;;;;;5026332;28;20476;-51
2022/08/18 11:06:42;;;;;;;20.13;16.30;;;23.80;98.10;;;;;;5010220;28;20981;-52
2022/08/18 11:09:11;;;;;;;16.07;13.77;;;23.70;98.00;;;;;;5011911;28;20481;-52
2022/08/18 11:11:41;;;;;;;18.77;15.43;;;23.70;98.40;;;;;;5020237;28;20994;-52
2022/08/18 11:14:37;;;;;;;23.10;15.93;;;23.60;98.40;;;;;;5026152;28;20622;-53
2022/08/18 11:17:13;;;;;;;20.70;16.30;;;23.50;98.40;;;;;;5011405;28;21055;-52
2022/08/18 11:19:42;;;;;;;19.13;15.43;;;23.50;98.40;;;;;;5022007;28;20844;-52
2022/08/18 11:22:22;;;;;;;26.30;17.20;;;23.50;98.40;;;;;;5027968;28;20475;-52
2022/08/18 11:24:51;;;;;;;19.60;17.13;;;23.60;98.50;;;;;;5016283;28;20559;-51
2022/08/18 11:27:20;;;;;;;20.47;17.33;;;23.60;98.70;;;;;;5017728;28;20578;-53
2022/08/18 11:29:48;;;;;;;19.80;16.67;;;23.60;98.70;;;;;;5024388;28;20482;-52
2022/08/18 11:32:22;;;;;;;24.83;18.23;;;23.60;98.70;;;;;;5014474;28;20476;-52
2022/08/18 11:34:52;;;;;;;19.60;17.50;;;23.60;98.80;;;;;;5007210;28;21793;-52
2022/08/18 11:37:26;;;;;;;21.70;17.80;;;23.60;98.80;;;;;;5010609;28;20514;-52
2022/08/18 11:39:57;;;;;;;25.20;18.40;;;23.60;98.50;;;;;;5021693;28;20507;-51
2022/08/18 11:42:29;;;;;;;23.60;19.13;;;23.60;98.90;;;;;;5017317;28;20818;-52
2022/08/18 11:45:05;;;;;;;25.00;19.37;;;23.60;98.70;;;;;;5019994;28;20480;-52
2022/08/18 11:47:32;;;;;;;24.80;20.93;;;23.70;99.00;;;;;;5018862;28;20592;-52
2022/08/18 11:50:08;;;;;;;27.17;22.13;;;23.70;99.00;;;;;;5022171;28;20551;-51
2022/08/18 11:52:49;;;;;;;25.37;20.53;;;23.60;99.20;;;;;;5014814;28;20475;-53
2022/08/18 11:55:21;;;;;;;29.90;21.27;;;;;;;;;;5028568;28;20475;-52
2022/08/18 11:57:53;;;;;;;24.87;20.57;;;23.50;99.00;;;;;;5019377;28;20483;-52
2022/08/18 12:00:53;;;;;;;38.23;22.97;;;23.50;99.00;;;;;;5023921;28;20543;-51
2022/08/18 12:03:27;;;;;;;28.43;21.57;;;23.50;99.30;;;;;;5029294;28;20596;-51
2022/08/18 12:05:57;;;;;;;27.47;20.20;;;23.40;99.10;;;;;;5034520;28;21024;-51
2022/08/18 12:08:32;;;;;;;25.80;21.30;;;23.40;99.30;;;;;;5034801;28;20484;-52
2022/08/18 12:11:19;;;;;;;27.33;19.63;;;23.50;99.00;;;;;;5036123;28;20479;-51
2022/08/18 12:13:48;;;;;;;28.60;20.37;;;23.50;99.00;;;;;;5032875;28;20486;-53
2022/08/18 12:16:30;;;;;;;26.97;19.10;;;23.40;99.00;;;;;;5035858;28;20564;-51
2022/08/18 12:18:57;;;;;;;24.20;19.50;;;23.40;99.00;;;;;;5034221;28;20983;-51
2022/08/18 12:21:24;;;;;;;24.03;18.83;;;23.40;98.80;;;;;;5033438;28;20491;-52
2022/08/18 12:23:50;;;;;;;20.50;17.07;;;23.40;98.70;;;;;;5036281;28;20487;-52
2022/08/18 12:26:19;;;;;;;21.30;16.60;;;23.40;98.60;;;;;;5040153;28;20479;-51
2022/08/18 12:28:45;;;;;;;24.13;17.50;;;23.40;98.80;;;;;;5035012;28;20484;-52
2022/08/18 12:31:12;;;;;;;20.03;15.67;;;23.60;98.70;;;;;;5037042;28;20479;-52
2022/08/18 12:33:39;;;;;;;19.27;16.13;;;23.60;98.50;;;;;;5034942;28;20490;-52
2022/08/18 12:36:06;;;;;;;16.97;14.63;;;23.60;98.50;;;;;;5039009;28;20478;-52
2022/08/18 12:38:33;;;;;;;18.70;15.17;;;23.70;98.60;;;;;;5026315;28;20487;-52
2022/08/18 12:41:00;;;;;;;23.70;15.70;;;23.80;98.20;;;;;;5036633;28;20838;-51
2022/08/18 12:43:28;;;;;;;19.60;16.70;;;23.80;98.10;;;;;;5033069;28;20480;-51
2022/08/18 12:45:55;;;;;;;18.20;15.07;;;23.90;98.20;;;;;;5037238;28;20534;-50
2022/08/18 12:48:22;;;;;;;19.90;16.83;;;23.90;97.80;;;;;;5034687;28;20473;-51
2022/08/18 12:50:48;;;;;;;19.00;15.80;;;23.90;97.80;;;;;;5035984;28;20484;-51
2022/08/18 12:53:15;;;;;;;26.60;16.70;;;24.00;97.80;;;;;;5037080;28;20851;-52
2022/08/18 12:55:43;;;;;;;19.37;15.20;;;24.00;97.70;;;;;;5036021;28;20490;-53
2022/08/18 12:58:10;;;;;;;16.93;14.77;;;24.20;98.00;;;;;;5035972;28;20479;-51
2022/08/18 13:00:40;;;;;;;19.30;15.30;;;24.30;98.10;;;;;;5024843;28;20808;-51
2022/08/18 13:03:07;;;;;;;16.90;15.07;;;24.50;97.40;;;;;;5036399;28;21233;-51
2022/08/18 13:05:35;;;;;;;22.27;17.30;;;24.60;97.50;;;;;;5036622;28;20583;-51
2022/08/18 13:08:03;;;;;;;19.20;15.93;;;24.60;96.60;;;;;;5031659;28;20485;-51
2022/08/18 13:10:30;;;;;;;20.33;16.20;;;24.80;96.90;;;;;;5033254;28;20495;-51
2022/08/18 13:12:57;;;;;;;21.20;16.70;;;24.90;96.10;;;;;;5030983;28;20496;-51
2022/08/18 13:15:23;;;;;;;17.37;15.50;;;25.00;96.00;;;;;;5035160;28;20484;-51